Time;durP1;ratioP1;P1;durP2;ratioP2;P2;SDS_P1;SDS_P2;PMS_P1;PMS_P2;Temp;Humidity;BMP_temperature;BMP_pressure;BME280_temperature;BME280_humidity;BME280_pressure;Samples;Min_cycle;Max_cycle;Signal;HPM_P1;HPM_P2
2023/04/25 00:00:56;;;;;;;;;;;7.10;99.90;;;;;;5175795;27;19914;-37
2023/04/25 00:03:22;;;;;;;;;;;7.00;99.90;;;;;;5174945;27;19950;-36
2023/04/25 00:05:47;;;;;;;;;;;7.00;99.90;;;;;;5174563;27;20313;-37
2023/04/25 00:08:13;;;;;;;;;;;7.00;99.90;;;;;;5175688;27;19968;-38
2023/04/25 00:10:38;;;;;;;;;;;7.00;99.90;;;;;;5175246;27;20277;-36
2023/04/25 00:13:04;;;;;;;;;;;7.00;99.90;;;;;;5176291;27;19989;-37
2023/04/25 00:15:32;;;;;;;;;;;7.00;99.90;;;;;;5176061;27;20338;-37
2023/04/25 00:17:58;;;;;;;;;;;7.00;99.90;;;;;;5175298;27;19910;-36
2023/04/25 00:20:24;;;;;;;;;;;6.90;99.90;;;;;;5176369;27;19907;-37
2023/04/25 00:22:50;;;;;;;;;;;6.90;99.90;;;;;;5159436;27;20277;-37
2023/04/25 00:25:16;;;;;;;;;;;6.80;99.90;;;;;;5174326;27;19911;-37
2023/04/25 00:27:41;;;;;;;;;;;6.80;99.90;;;;;;5174114;27;19914;-36
2023/04/25 00:30:07;;;;;;;;;;;6.70;99.90;;;;;;5154661;27;19919;-36
2023/04/25 00:32:33;;;;;;;;;;;6.70;99.90;;;;;;5154207;27;20365;-39
2023/04/25 00:34:58;;;;;;;;;;;6.70;99.90;;;;;;5155040;27;20360;-37
2023/04/25 00:37:24;;;;;;;;;;;6.70;99.90;;;;;;5155106;27;19997;-37
2023/04/25 00:39:50;;;;;;;;;;;6.70;99.90;;;;;;5154161;27;20291;-37
2023/04/25 00:42:15;;;;;;;;;;;6.70;99.90;;;;;;5154869;27;19915;-37
2023/04/25 00:44:42;;;;;;;;;;;6.70;99.90;;;;;;5154877;27;19914;-37
2023/04/25 00:47:07;;;;;;;;;;;6.70;99.90;;;;;;5167257;27;20060;-37
2023/04/25 00:49:33;;;;;;;;;;;6.80;99.90;;;;;;5175575;27;20012;-37
2023/04/25 00:51:58;;;;;;;;;;;6.80;99.90;;;;;;5174902;27;19951;-37
2023/04/25 00:54:25;;;;;;;;;;;6.70;99.90;;;;;;5175213;27;19911;-37
2023/04/25 00:56:50;;;;;;;;;;;6.80;99.90;;;;;;5175246;27;19911;-37
2023/04/25 00:59:16;;;;;;;;;;;6.80;99.90;;;;;;5174593;27;20306;-37
2023/04/25 01:01:43;;;;;;;;;;;6.80;99.90;;;;;;5175599;27;19953;-37
2023/04/25 01:04:08;;;;;;;;;;;6.70;99.90;;;;;;5175564;27;20033;-37
2023/04/25 01:06:35;;;;;;;;;;;6.70;99.90;;;;;;5174821;27;20372;-38
2023/04/25 01:09:01;;;;;;;;;;;6.60;99.90;;;;;;5175339;27;19911;-36
2023/04/25 01:11:26;;;;;;;;;;;6.60;99.90;;;;;;5175454;27;20090;-36
2023/04/25 01:13:52;;;;;;;;;;;6.50;99.90;;;;;;5174708;27;19907;-37
2023/04/25 01:16:17;;;;;;;;;;;6.50;99.90;;;;;;5174715;27;19911;-37
2023/04/25 01:18:43;;;;;;;;;;;6.50;99.90;;;;;;5175191;27;19906;-36
2023/04/25 01:21:12;;;;;;;;;;;6.40;99.90;;;;;;5174150;27;19907;-36
2023/04/25 01:23:39;;;;;;;;;;;6.40;99.90;;;;;;5175338;27;19907;-37
2023/04/25 01:26:06;;;;;;;;;;;6.30;99.90;;;;;;5175191;27;19929;-37
2023/04/25 01:28:32;;;;;;;;;;;6.30;99.90;;;;;;5174352;27;20036;-38
2023/04/25 01:30:58;;;;;;;;;;;6.30;99.90;;;;;;5174782;27;19918;-37
2023/04/25 01:33:24;;;;;;;;;;;6.30;99.90;;;;;;5175285;27;20269;-37
2023/04/25 01:35:49;;;;;;;;;;;6.20;99.90;;;;;;5170334;27;20002;-37
2023/04/25 01:38:15;;;;;;;;;;;6.10;99.90;;;;;;5154101;27;19915;-37
2023/04/25 01:40:41;;;;;;;;;;;6.10;99.90;;;;;;5153962;27;19964;-37
2023/04/25 01:43:08;;;;;;;;;;;6.00;99.90;;;;;;5153358;27;20076;-37
2023/04/25 01:45:33;;;;;;;;;;;6.00;99.90;;;;;;5154149;27;19907;-38
2023/04/25 01:47:59;;;;;;;;;;;5.90;99.90;;;;;;5154013;27;19914;-36
2023/04/25 01:50:25;;;;;;;;;;;5.90;99.90;;;;;;5159960;27;20029;-36
2023/04/25 01:52:50;;;;;;;;;;;5.90;99.90;;;;;;5164252;27;19918;-37
2023/04/25 01:55:16;;;;;;;;;;;5.90;99.90;;;;;;5154025;27;19994;-37
2023/04/25 01:57:41;;;;;;;;;;;5.90;99.90;;;;;;5174554;27;19911;-36
2023/04/25 02:00:08;;;;;;;;;;;5.90;99.90;;;;;;5174753;27;20001;-38
2023/04/25 02:02:34;;;;;;;;;;;5.90;99.90;;;;;;5174172;27;19910;-37
2023/04/25 02:05:00;;;;;;;;;;;5.90;99.90;;;;;;5174824;27;19914;-36
2023/04/25 02:07:25;;;;;;;;;;;5.90;99.90;;;;;;5174703;27;19907;-37
2023/04/25 02:09:51;;;;;;;;;;;5.90;99.90;;;;;;5174003;27;19915;-36
2023/04/25 02:12:16;;;;;;;;;;;5.90;99.90;;;;;;5174773;27;20013;-36
2023/04/25 02:14:42;;;;;;;;;;;5.90;99.90;;;;;;5174880;27;19939;-37
2023/04/25 02:17:07;;;;;;;;;;;5.90;99.90;;;;;;5173502;27;19917;-36
2023/04/25 02:19:33;;;;;;;;;;;5.90;99.90;;;;;;5174725;27;20262;-37
2023/04/25 02:21:58;;;;;;;;;;;6.00;99.90;;;;;;5174622;27;19914;-36
2023/04/25 02:24:24;;;;;;;;;;;6.00;99.90;;;;;;5173927;27;20376;-37
2023/04/25 02:26:49;;;;;;;;;;;6.00;99.90;;;;;;5174621;27;19907;-37
2023/04/25 02:29:15;;;;;;;;;;;6.00;99.90;;;;;;5175367;27;20322;-37
2023/04/25 02:31:41;;;;;;;;;;;6.00;99.90;;;;;;5177228;27;19923;-38
2023/04/25 02:34:06;;;;;;;;;;;6.00;99.90;;;;;;5178619;27;19946;-37
2023/04/25 02:36:34;;;;;;;;;;;6.00;99.90;;;;;;5178247;27;19906;-37
2023/04/25 02:39:00;;;;;;;;;;;6.00;99.90;;;;;;5177498;27;19959;-37
2023/04/25 02:41:26;;;;;;;;;;;6.00;99.90;;;;;;5178294;27;19907;-37
2023/04/25 02:43:51;;;;;;;;;;;6.00;99.90;;;;;;5178117;27;19914;-37
2023/04/25 02:46:17;;;;;;;;;;;6.00;99.90;;;;;;5164885;27;19919;-36
2023/04/25 02:48:43;;;;;;;;;;;6.00;99.90;;;;;;5157232;27;19914;-37
2023/04/25 02:51:08;;;;;;;;;;;6.00;99.90;;;;;;5157044;27;19915;-37
2023/04/25 02:53:34;;;;;;;;;;;6.00;99.90;;;;;;5156245;27;19911;-37
2023/04/25 02:55:59;;;;;;;;;;;6.00;99.90;;;;;;5140410;27;20010;-37
2023/04/25 02:58:25;;;;;;;;;;;6.00;99.90;;;;;;5139410;27;20365;-38
2023/04/25 03:00:50;;;;;;;;;;;6.00;99.90;;;;;;5150675;27;19937;-37
2023/04/25 03:03:21;;;;;;;;;;;6.00;99.90;;;;;;5150309;27;20322;-37
2023/04/25 03:05:48;;;;;;;;;;;6.00;99.90;;;;;;5156150;27;19911;-37
2023/04/25 03:08:13;;;;;;;;;;;6.00;99.90;;;;;;5156610;27;19911;-37
2023/04/25 03:10:39;;;;;;;;;;;6.00;99.90;;;;;;5140618;27;20441;-36
2023/04/25 03:13:05;;;;;;;;;;;6.00;99.90;;;;;;5134346;27;19907;-36
2023/04/25 03:15:31;;;;;;;;;;;6.00;99.90;;;;;;5140731;27;20316;-37
2023/04/25 03:17:56;;;;;;;;;;;6.00;99.90;;;;;;5155774;27;19943;-37
2023/04/25 03:20:22;;;;;;;;;;;6.00;99.90;;;;;;5155712;27;19953;-36
2023/04/25 03:22:47;;;;;;;;;;;6.00;99.90;;;;;;5156289;27;20018;-37
2023/04/25 03:25:13;;;;;;;;;;;6.00;99.90;;;;;;5156526;27;19915;-36
2023/04/25 03:27:38;;;;;;;;;;;6.00;99.90;;;;;;5155705;27;19907;-37
2023/04/25 03:30:04;;;;;;;;;;;6.00;99.90;;;;;;5159270;27;19922;-37
2023/04/25 03:32:31;;;;;;;;;;;6.00;99.90;;;;;;5176555;27;20161;-36
2023/04/25 03:34:57;;;;;;;;;;;6.00;99.90;;;;;;5175863;27;19946;-37
2023/04/25 03:37:22;;;;;;;;;;;6.00;99.90;;;;;;5175895;27;19963;-37
2023/04/25 03:39:48;;;;;;;;;;;6.00;99.90;;;;;;5176319;27;19907;-37
2023/04/25 03:42:13;;;;;;;;;;;6.00;99.90;;;;;;5174414;27;19911;-37
2023/04/25 03:44:39;;;;;;;;;;;6.00;99.90;;;;;;5175472;27;19951;-36
2023/04/25 03:47:04;;;;;;;;;;;6.00;99.90;;;;;;5175945;27;19907;-38
2023/04/25 03:49:30;;;;;;;;;;;6.00;99.90;;;;;;5175971;27;19922;-37
2023/04/25 03:51:55;;;;;;;;;;;6.00;99.90;;;;;;5176821;27;19943;-37
2023/04/25 03:54:21;;;;;;;;;;;6.00;99.90;;;;;;5176781;27;19911;-37
2023/04/25 03:56:46;;;;;;;;;;;6.00;99.90;;;;;;5175733;27;19907;-36
2023/04/25 03:59:12;;;;;;;;;;;6.00;99.90;;;;;;5176397;27;19911;-38
2023/04/25 04:01:37;;;;;;;;;;;6.00;99.90;;;;;;5175702;27;19907;-37
2023/04/25 04:04:02;;;;;;;;;;;6.00;99.90;;;;;;5174715;27;19913;-37
2023/04/25 04:06:28;;;;;;;;;;;6.00;99.90;;;;;;5175814;27;20357;-37
2023/04/25 04:08:54;;;;;;;;;;;6.00;99.90;;;;;;5174515;27;19967;-36
2023/04/25 04:11:20;;;;;;;;;;;5.90;99.90;;;;;;5176511;27;19938;-36
2023/04/25 04:13:45;;;;;;;;;;;5.90;99.90;;;;;;5176289;27;19907;-37
2023/04/25 04:16:11;;;;;;;;;;;5.90;99.90;;;;;;5174390;27;20431;-36
2023/04/25 04:18:36;;;;;;;;;;;5.90;99.90;;;;;;5170963;27;19943;-36
2023/04/25 04:21:02;;;;;;;;;;;5.90;99.90;;;;;;5172525;27;19918;-37
2023/04/25 04:23:28;;;;;;;;;;;5.90;99.90;;;;;;5172663;27;19906;-38
2023/04/25 04:25:53;;;;;;;;;;;5.80;99.90;;;;;;5174166;27;20330;-37
2023/04/25 04:28:20;;;;;;;;;;;5.80;99.90;;;;;;5174052;27;19950;-37
2023/04/25 04:30:45;;;;;;;;;;;5.80;99.90;;;;;;5173270;27;19927;-37
2023/04/25 04:33:12;;;;;;;;;;;5.70;99.90;;;;;;5174387;27;19917;-38
2023/04/25 04:35:37;;;;;;;;;;;5.70;99.90;;;;;;5174493;27;19907;-38
2023/04/25 04:38:03;;;;;;;;;;;5.70;99.90;;;;;;5173648;27;20380;-37
2023/04/25 04:40:30;;;;;;;;;;;5.60;99.90;;;;;;5174215;27;19953;-37
2023/04/25 04:42:57;;;;;;;;;;;5.50;99.90;;;;;;5174174;27;19914;-36
2023/04/25 04:45:23;;;;;;;;;;;5.50;99.90;;;;;;5173027;27;19949;-37
2023/04/25 04:47:49;;;;;;;;;;;5.40;99.90;;;;;;5173603;27;19917;-36
2023/04/25 04:50:15;;;;;;;;;;;5.40;99.90;;;;;;5173900;27;19915;-38
2023/04/25 04:52:41;;;;;;;;;;;5.40;99.90;;;;;;5173778;27;20411;-37
2023/04/25 04:55:07;;;;;;;;;;;5.40;99.90;;;;;;5175485;27;19953;-36
2023/04/25 04:57:34;;;;;;;;;;;5.40;99.90;;;;;;5154832;27;19961;-36
2023/04/25 05:00:00;;;;;;;;;;;5.40;99.90;;;;;;5165027;27;19906;-37
2023/04/25 05:02:25;;;;;;;;;;;5.50;99.90;;;;;;5175434;27;19933;-37
2023/04/25 05:04:51;;;;;;;;;;;5.50;99.90;;;;;;5175495;27;19952;-37
2023/04/25 05:07:17;;;;;;;;;;;5.50;99.90;;;;;;5172800;27;19918;-37
2023/04/25 05:09:43;;;;;;;;;;;5.50;99.90;;;;;;5171046;27;19918;-36
2023/04/25 05:12:08;;;;;;;;;;;5.50;99.90;;;;;;5173925;27;19918;-37
2023/04/25 05:14:34;;;;;;;;;;;5.50;99.90;;;;;;5175269;27;20345;-38
2023/04/25 05:16:59;;;;;;;;;;;5.50;99.90;;;;;;5173735;27;19914;-37
2023/04/25 05:19:25;;;;;;;;;;;5.40;99.90;;;;;;5172999;27;20001;-37
2023/04/25 05:21:51;;;;;;;;;;;5.40;99.90;;;;;;5173724;27;19910;-36
2023/04/25 05:24:16;;;;;;;;;;;5.40;99.90;;;;;;5173702;27;19907;-37
2023/04/25 05:26:41;;;;;;;;;;;5.30;99.90;;;;;;5173034;27;20009;-36
2023/04/25 05:29:07;;;;;;;;;;;5.40;99.90;;;;;;5173539;27;19907;-38
2023/04/25 05:31:33;;;;;;;;;;;5.30;99.90;;;;;;5173327;27;20397;-37
2023/04/25 05:33:58;;;;;;;;;;;5.40;99.90;;;;;;5172737;27;19945;-36
2023/04/25 05:36:23;;;;;;;;;;;5.40;99.90;;;;;;5173639;27;19907;-36
2023/04/25 05:38:49;;;;;;;;;;;5.40;99.90;;;;;;5173533;27;19911;-39
2023/04/25 05:41:15;;;;;;;;;;;5.40;99.90;;;;;;5172461;27;19938;-37
2023/04/25 05:43:45;;;;;;;;;;;5.40;99.90;;;;;;5171768;27;19963;-37
2023/04/25 05:46:10;;;;;;;;;;;5.50;99.90;;;;;;5162239;27;19923;-37
2023/04/25 05:48:37;;;;;;;;;;;5.60;99.90;;;;;;5153177;27;19971;-37
2023/04/25 05:51:02;;;;;;;;;;;5.70;99.90;;;;;;5161686;27;19923;-37
2023/04/25 05:53:29;;;;;;;;;;;5.80;99.90;;;;;;5154255;27;19914;-37
2023/04/25 05:55:54;;;;;;;;;;;5.90;99.90;;;;;;5154378;27;19907;-36
2023/04/25 05:58:20;;;;;;;;;;;6.00;99.90;;;;;;5154727;27;20001;-38
2023/04/25 06:00:46;;;;;;;;;;;6.00;99.90;;;;;;5154721;27;19914;-37
2023/04/25 06:03:13;;;;;;;;;;;6.10;99.90;;;;;;5153840;27;19914;-38
2023/04/25 06:05:38;;;;;;;;;;;6.20;99.90;;;;;;5157145;27;19908;-37
2023/04/25 06:08:04;;;;;;;;;;;6.30;99.90;;;;;;5157996;27;19908;-36
2023/04/25 06:10:29;;;;;;;;;;;6.30;99.90;;;;;;5157175;27;20072;-37
2023/04/25 06:12:55;;;;;;;;;;;6.40;99.90;;;;;;5157871;27;20047;-38
2023/04/25 06:15:20;;;;;;;;;;;6.40;99.90;;;;;;5157821;27;19929;-37
2023/04/25 06:17:46;;;;;;;;;;;6.50;99.90;;;;;;5157176;27;19960;-37
2023/04/25 06:20:11;;;;;;;;;;;6.50;99.90;;;;;;5157709;27;19911;-37
2023/04/25 06:22:37;;;;;;;;;;;6.60;99.90;;;;;;5177443;27;19910;-37
2023/04/25 06:25:04;;;;;;;;;;;6.60;99.90;;;;;;5178535;27;20460;-37
2023/04/25 06:27:29;;;;;;;;;;;6.60;99.90;;;;;;5178626;27;19914;-37
2023/04/25 06:29:55;;;;;;;;;;;6.60;99.90;;;;;;5177171;27;19915;-37
2023/04/25 06:32:20;;;;;;;;;;;6.70;99.90;;;;;;5178111;27;19954;-37
2023/04/25 06:34:46;;;;;;;;;;;6.70;99.90;;;;;;5178436;27;20349;-37
2023/04/25 06:37:11;;;;;;;;;;;6.70;99.90;;;;;;5177179;27;19911;-37
2023/04/25 06:39:37;;;;;;;;;;;6.70;99.90;;;;;;5178390;27;19914;-37
2023/04/25 06:42:02;;;;;;;;;;;6.70;99.90;;;;;;5178322;27;20349;-37
2023/04/25 06:44:29;;;;;;;;;;;6.80;99.90;;;;;;5177366;27;19987;-37
2023/04/25 06:46:54;;;;;;;;;;;6.80;99.90;;;;;;5178153;27;19910;-37
2023/04/25 06:49:20;;;;;;;;;;;6.80;99.90;;;;;;5178250;27;19921;-37
2023/04/25 06:51:45;;;;;;;;;;;6.90;99.90;;;;;;5176948;27;19934;-38
2023/04/25 06:54:11;;;;;;;;;;;6.90;99.90;;;;;;5177963;27;20002;-37
2023/04/25 06:56:36;;;;;;;;;;;7.00;99.90;;;;;;5178020;27;20509;-37
2023/04/25 06:59:02;;;;;;;;;;;7.10;99.90;;;;;;5176769;27;20304;-37
2023/04/25 07:01:27;;;;;;;;;;;7.30;99.90;;;;;;5177737;27;19917;-37
2023/04/25 07:03:52;;;;;;;;;;;7.40;99.90;;;;;;5177857;27;19907;-37
2023/04/25 07:06:18;;;;;;;;;;;7.50;99.90;;;;;;5176975;27;20473;-37
2023/04/25 07:08:43;;;;;;;;;;;7.70;99.90;;;;;;5177802;27;20001;-38
2023/04/25 07:11:09;;;;;;;;;;;7.80;99.90;;;;;;5177586;27;19915;-37
2023/04/25 07:13:34;;;;;;;;;;;7.80;99.90;;;;;;5176891;27;19951;-37
2023/04/25 07:16:00;;;;;;;;;;;7.70;99.90;;;;;;5177072;27;19954;-37
2023/04/25 07:18:25;;;;;;;;;;;7.60;99.90;;;;;;5177554;27;19951;-37
2023/04/25 07:20:51;;;;;;;;;;;7.50;99.90;;;;;;5176160;27;19914;-38
2023/04/25 07:23:16;;;;;;;;;;;7.30;99.90;;;;;;5176842;27;19993;-37
2023/04/25 07:25:42;;;;;;;;;;;7.30;99.90;;;;;;5177484;27;19914;-38
2023/04/25 07:28:07;;;;;;;;;;;7.30;99.90;;;;;;5176306;27;19911;-37
2023/04/25 07:30:34;;;;;;;;;;;7.50;99.90;;;;;;5176998;27;20296;-37
2023/04/25 07:33:00;;;;;;;;;;;7.60;99.90;;;;;;5176417;27;19913;-38
2023/04/25 07:35:25;;;;;;;;;;;7.70;99.90;;;;;;5177382;27;19938;-38
2023/04/25 07:37:51;;;;;;;;;;;7.70;99.90;;;;;;5177219;27;20418;-37
2023/04/25 07:40:17;;;;;;;;;;;7.70;99.90;;;;;;5176284;27;20283;-37
2023/04/25 07:42:42;;;;;;;;;;;7.70;99.90;;;;;;5177051;27;19907;-37
2023/04/25 07:45:09;;;;;;;;;;;7.80;99.90;;;;;;5176999;27;20905;-37
2023/04/25 07:47:34;;;;;;;;;;;7.90;99.90;;;;;;5176203;27;20280;-37
2023/04/25 07:50:00;;;;;;;;;;;8.00;99.90;;;;;;5176868;27;19911;-37
2023/04/25 07:52:25;;;;;;;;;;;8.10;99.90;;;;;;5176146;27;20385;-38
2023/04/25 07:54:51;;;;;;;;;;;8.10;99.90;;;;;;5176088;27;20289;-36
2023/04/25 07:57:18;;;;;;;;;;;8.10;99.90;;;;;;5176630;27;19906;-37
2023/04/25 07:59:43;;;;;;;;;;;8.10;99.90;;;;;;5176756;27;19907;-37
2023/04/25 08:02:09;;;;;;;;;;;8.00;99.90;;;;;;5175587;27;19911;-37
2023/04/25 08:04:34;;;;;;;;;;;8.00;99.90;;;;;;5176828;27;20371;-36
2023/04/25 08:07:00;;;;;;;;;;;7.90;99.90;;;;;;5176582;27;19907;-38
2023/04/25 08:09:25;;;;;;;;;;;8.00;99.90;;;;;;5175742;27;19934;-37
2023/04/25 08:11:51;;;;;;;;;;;8.10;99.90;;;;;;5176501;27;19983;-37
2023/04/25 08:14:16;;;;;;;;;;;8.30;99.90;;;;;;5176445;27;20350;-37
2023/04/25 08:16:42;;;;;;;;;;;8.50;99.90;;;;;;5175647;27;20377;-38
2023/04/25 08:19:07;;;;;;;;;;;8.70;99.90;;;;;;5176352;27;19951;-38
2023/04/25 08:21:33;;;;;;;;;;;8.80;99.90;;;;;;5176000;27;19915;-37
2023/04/25 08:23:58;;;;;;;;;;;8.80;99.90;;;;;;5175473;27;20375;-38
2023/04/25 08:26:24;;;;;;;;;;;8.70;99.90;;;;;;5175697;27;19952;-37
2023/04/25 08:28:50;;;;;;;;;;;8.60;99.90;;;;;;5175804;27;19913;-37
2023/04/25 08:31:16;;;;;;;;;;;8.50;99.90;;;;;;5174965;27;19919;-38
2023/04/25 08:33:42;;;;;;;;;;;8.20;99.90;;;;;;5176147;27;19911;-38
2023/04/25 08:36:07;;;;;;;;;;;8.10;99.90;;;;;;5175172;27;19914;-37
2023/04/25 08:38:33;;;;;;;;;;;7.90;99.90;;;;;;5176077;27;19906;-37
2023/04/25 08:40:59;;;;;;;;;;;7.70;99.90;;;;;;5175943;27;19907;-38
2023/04/25 08:43:25;;;;;;;;;;;7.40;99.90;;;;;;5175331;27;19907;-38
2023/04/25 08:45:52;;;;;;;;;;;7.30;99.90;;;;;;5175894;27;20293;-38
2023/04/25 08:48:18;;;;;;;;;;;7.30;99.90;;;;;;5175824;27;19906;-37
2023/04/25 08:50:53;;;;;;;;;;;7.40;99.90;;;;;;5175026;27;20265;-36
2023/04/25 08:53:39;;;;;;;;;;;7.50;99.90;;;;;;5175583;27;19910;-38
2023/04/25 08:56:05;;;;;;;;;;;7.60;99.90;;;;;;5175689;27;19987;-37
2023/04/25 08:58:31;;;;;;;;;;;7.80;99.90;;;;;;5174998;27;19954;-37
2023/04/25 09:00:57;;;;;;;;;;;8.00;99.90;;;;;;5174871;27;20441;-38
2023/04/25 09:03:22;;;;;;;;;;;8.30;99.90;;;;;;5175590;27;19907;-36
2023/04/25 09:05:48;;;;;;;;;;;8.50;99.90;;;;;;5174762;27;19907;-38
2023/04/25 09:08:14;;;;;;;;;;;8.60;99.90;;;;;;5175394;27;19990;-37
2023/04/25 09:10:39;;;;;;;;;;;8.70;99.90;;;;;;5175383;27;20013;-38
2023/04/25 09:13:06;;;;;;;;;;;8.70;99.90;;;;;;5174620;27;19907;-38
2023/04/25 09:15:32;;;;;;;;;;;8.60;99.90;;;;;;5175336;27;19911;-37
2023/04/25 09:17:58;;;;;;;;;;;8.60;99.90;;;;;;5175314;27;19913;-37
2023/04/25 09:20:24;;;;;;;;;;;8.50;99.90;;;;;;5174602;27;20010;-37
2023/04/25 09:23:01;;;;;;;;;;;8.40;99.90;;;;;;5175302;27;19906;-37
2023/04/25 09:25:26;;;;;;;;;;;8.40;99.90;;;;;;5174661;27;19906;-38
2023/04/25 09:27:52;;;;;;;;;;;8.60;99.90;;;;;;5175371;27;19998;-37
2023/04/25 09:30:18;;;;;;;;;;;8.90;99.90;;;;;;5174561;27;19930;-37
2023/04/25 09:32:43;;;;;;;;;;;9.00;99.90;;;;;;5174648;27;19907;-37
2023/04/25 09:35:09;;;;;;;;;;;8.90;99.90;;;;;;5175187;27;19906;-38
2023/04/25 09:37:35;;;;;;;;;;;8.70;99.90;;;;;;5175150;27;20284;-38
2023/04/25 09:40:05;;;;;;;;;;;8.60;99.90;;;;;;5178480;27;19907;-37
2023/04/25 09:42:31;;;;;;;;;;;8.50;99.90;;;;;;5179603;27;19914;-38
2023/04/25 09:44:58;;;;;;;;;;;8.30;99.90;;;;;;5179364;27;19907;-38
2023/04/25 09:47:24;;;;;;;;;;;8.20;99.90;;;;;;5178565;27;19997;-38
2023/04/25 09:49:51;;;;;;;;;;;8.20;99.90;;;;;;5178867;27;19910;-38
2023/04/25 09:52:17;;;;;;;;;;;8.30;99.90;;;;;;5176284;27;20372;-38
2023/04/25 09:54:44;;;;;;;;;;;8.40;99.90;;;;;;5174299;27;19907;-38
2023/04/25 09:57:10;;;;;;;;;;;8.60;99.90;;;;;;5167722;27;19950;-38
2023/04/25 09:59:38;;;;;;;;;;;8.70;99.90;;;;;;5178313;27;19907;-38
2023/04/25 10:02:03;;;;;;;;;;;8.80;99.90;;;;;;5170306;27;20313;-38
2023/04/25 10:04:31;;;;;;;;;;;8.90;99.90;;;;;;5177083;27;19907;-38
2023/04/25 10:06:57;;;;;;;;;;;9.00;99.90;;;;;;5168121;27;19936;-38
2023/04/25 10:09:25;;;;;;;;;;;9.20;99.90;;;;;;5169884;27;19911;-38
2023/04/25 10:11:51;;;;;;;;;;;9.30;99.90;;;;;;5169321;27;20357;-37
2023/04/25 10:14:16;;;;;;;;;;;9.50;99.90;;;;;;5177567;27;19907;-37
2023/04/25 10:16:42;;;;;;;;;;;9.80;99.90;;;;;;5175408;27;19941;-39
2023/04/25 10:19:09;;;;;;;;;;;10.20;99.90;;;;;;5178042;27;19906;-39
2023/04/25 10:21:36;;;;;;;;;;;10.20;99.90;;;;;;5172766;27;19962;-39
2023/04/25 10:24:02;;;;;;;;;;;9.60;99.90;;;;;;5178108;27;19914;-39
2023/04/25 10:26:28;;;;;;;;;;;9.00;99.90;;;;;;5178140;27;19906;-40
2023/04/25 10:29:01;;;;;;;;;;;8.50;99.90;;;;;;5177390;27;19906;-37
2023/04/25 10:31:26;;;;;;;;;;;8.10;99.90;;;;;;5177487;27;19989;-37
2023/04/25 10:33:53;;;;;;;;;;;7.90;99.90;;;;;;5177806;27;20370;-38
2023/04/25 10:36:20;;;;;;;;;;;7.90;99.90;;;;;;5176913;27;19914;-37
2023/04/25 10:38:47;;;;;;;;;;;7.90;99.90;;;;;;5170834;27;19911;-38
2023/04/25 10:41:13;;;;;;;;;;;8.00;99.90;;;;;;5174576;27;20596;-38
2023/04/25 10:43:42;;;;;;;;;;;8.10;99.90;;;;;;5176421;27;19917;-39
2023/04/25 10:46:24;;;;;;;;;;;8.20;99.90;;;;;;5174509;27;20342;-38
2023/04/25 10:48:51;;;;;;;;;;;8.50;99.90;;;;;;5175090;27;19907;-38
2023/04/25 10:51:18;;;;;;;;;;;8.70;99.90;;;;;;5175734;27;20013;-38
2023/04/25 10:53:56;;;;;;;;;;;8.90;99.90;;;;;;5177037;27;20298;-38
2023/04/25 10:56:22;;;;;;;;;;;9.10;99.90;;;;;;5176580;27;19934;-36
2023/04/25 10:58:48;;;;;;;;;;;9.30;99.90;;;;;;5171945;27;19918;-38
2023/04/25 11:01:15;;;;;;;;;;;9.50;99.90;;;;;;5176177;27;19907;-37
2023/04/25 11:03:42;;;;;;;;;;;9.80;99.90;;;;;;5176598;27;19907;-37
2023/04/25 11:06:12;;;;;;;;;;;10.00;99.90;;;;;;5172068;27;20009;-39
2023/04/25 11:08:46;;;;;;;;;;;10.00;99.90;;;;;;5169982;27;19922;-37
2023/04/25 11:11:12;;;;;;;;;;;9.80;99.90;;;;;;5172382;27;20006;-40
2023/04/25 11:13:38;;;;;;;;;;;9.70;99.90;;;;;;5174427;27;20793;-37
2023/04/25 11:16:06;;;;;;;;;;;9.70;99.90;;;;;;5174493;27;19907;-37
2023/04/25 11:18:34;;;;;;;;;;;9.70;99.90;;;;;;5173765;27;19915;-38
2023/04/25 11:20:59;;;;;;;;;;;9.80;99.90;;;;;;5174799;27;20311;-38
2023/04/25 11:23:26;;;;;;;;;;;10.00;99.90;;;;;;5176326;27;19922;-38
2023/04/25 11:25:52;;;;;;;;;;;10.00;99.90;;;;;;5174857;27;19915;-37
2023/04/25 11:28:22;;;;;;;;;;;9.80;99.90;;;;;;5174258;27;19976;-38
2023/04/25 11:30:48;;;;;;;;;;;9.60;99.90;;;;;;5168325;27;20325;-38
2023/04/25 11:33:14;;;;;;;;;;;9.40;99.90;;;;;;5168789;27;20269;-37
2023/04/25 11:35:40;;;;;;;;;;;9.30;99.90;;;;;;5166666;27;20365;-39
2023/04/25 11:38:05;;;;;;;;;;;9.20;99.90;;;;;;5176474;27;20341;-39
2023/04/25 11:40:31;;;;;;;;;;;9.30;99.90;;;;;;5176236;27;19949;-38
2023/04/25 11:42:59;;;;;;;;;;;9.70;99.90;;;;;;5167073;27;19915;-38
2023/04/25 11:45:25;;;;;;;;;;;10.10;99.90;;;;;;5177083;27;19911;-38
2023/04/25 11:47:51;;;;;;;;;;;10.40;99.90;;;;;;5176129;27;19959;-39
2023/04/25 11:50:16;;;;;;;;;;;10.40;99.90;;;;;;5176504;27;20369;-38
2023/04/25 11:52:43;;;;;;;;;;;10.30;99.90;;;;;;5176901;27;19965;-38
2023/04/25 11:55:09;;;;;;;;;;;10.30;99.90;;;;;;5176001;27;19922;-39
2023/04/25 11:57:35;;;;;;;;;;;10.30;99.90;;;;;;5176805;27;19906;-38
2023/04/25 12:00:15;;;;;;;;;;;10.30;99.90;;;;;;5176749;27;19931;-38
2023/04/25 12:02:41;;;;;;;;;;;10.20;99.90;;;;;;5175626;27;19906;-37
2023/04/25 12:05:08;;;;;;;;;;;10.30;99.90;;;;;;5176842;27;19974;-38
2023/04/25 12:07:33;;;;;;;;;;;10.30;99.90;;;;;;5175406;27;19911;-37
2023/04/25 12:09:59;;;;;;;;;;;10.30;99.90;;;;;;5176371;27;19928;-39
2023/04/25 12:12:32;;;;;;;;;;;10.40;99.90;;;;;;5176494;27;20289;-39
2023/04/25 12:15:08;;;;;;;;;;;10.50;99.90;;;;;;5175475;27;19911;-38
2023/04/25 12:17:33;;;;;;;;;;;10.70;99.90;;;;;;5176477;27;19913;-37
2023/04/25 12:19:59;;;;;;;;;;;10.70;99.90;;;;;;5176303;27;19907;-37
2023/04/25 12:22:25;;;;;;;;;;;10.70;99.90;;;;;;5175479;27;19906;-38
2023/04/25 12:24:52;;;;;;;;;;;10.70;99.90;;;;;;5176357;27;19932;-39
2023/04/25 12:27:19;;;;;;;;;;;10.60;99.90;;;;;;5175960;27;19911;-38
2023/04/25 12:29:52;;;;;;;;;;;10.40;99.90;;;;;;5175145;27;19911;-38
2023/04/25 12:32:17;;;;;;;;;;;10.10;99.90;;;;;;5176106;27;19906;-38
2023/04/25 12:34:43;;;;;;;;;;;9.80;99.90;;;;;;5176011;27;19989;-37
2023/04/25 12:37:09;;;;;;;;;;;9.50;99.90;;;;;;5175229;27;19907;-38
2023/04/25 12:39:34;;;;;;;;;;;9.30;99.90;;;;;;5176063;27;20302;-38
2023/04/25 12:42:00;;;;;;;;;;;9.20;99.90;;;;;;5175925;27;20281;-38
2023/04/25 12:44:26;;;;;;;;;;;9.40;99.90;;;;;;5174823;27;19911;-38
2023/04/25 12:46:52;;;;;;;;;;;9.70;99.90;;;;;;5175875;27;19933;-39
2023/04/25 12:49:17;;;;;;;;;;;10.00;99.90;;;;;;5175250;27;19911;-39
2023/04/25 12:51:43;;;;;;;;;;;10.10;99.90;;;;;;5175821;27;19997;-38
2023/04/25 12:54:09;;;;;;;;;;;9.90;99.90;;;;;;5175658;27;19907;-38
2023/04/25 12:56:35;;;;;;;;;;;9.90;99.90;;;;;;5175062;27;19914;-38
2023/04/25 12:59:00;;;;;;;;;;;9.80;99.90;;;;;;5175663;27;19907;-39
2023/04/25 13:01:26;;;;;;;;;;;9.90;99.90;;;;;;5175499;27;20047;-38
2023/04/25 13:03:52;;;;;;;;;;;10.10;99.90;;;;;;5174765;27;19910;-39
2023/04/25 13:06:18;;;;;;;;;;;10.40;99.90;;;;;;5175471;27;19913;-37
2023/04/25 13:08:43;;;;;;;;;;;10.70;99.90;;;;;;5175595;27;19913;-36
2023/04/25 13:11:09;;;;;;;;;;;10.80;99.90;;;;;;5174543;27;19959;-38
2023/04/25 13:13:35;;;;;;;;;;;10.70;99.90;;;;;;5175214;27;19907;-37
2023/04/25 13:16:01;;;;;;;;;;;10.90;99.90;;;;;;5175015;27;19970;-38
2023/04/25 13:18:27;;;;;;;;;;;11.30;99.90;;;;;;5174892;27;20361;-38
2023/04/25 13:20:53;;;;;;;;;;;11.60;99.90;;;;;;5175188;27;19907;-37
2023/04/25 13:23:20;;;;;;;;;;;12.10;99.90;;;;;;5175175;27;19917;-38
2023/04/25 13:25:45;;;;;;;;;;;12.60;99.90;;;;;;5174586;27;19911;-37
2023/04/25 13:28:10;;;;;;;;;;;13.10;99.90;;;;;;5175232;27;19955;-38
2023/04/25 13:30:36;;;;;;;;;;;13.60;99.90;;;;;;5174815;27;19925;-38
2023/04/25 13:33:03;;;;;;;;;;;13.70;99.90;;;;;;5174428;27;19911;-37
2023/04/25 13:35:29;;;;;;;;;;;13.70;99.90;;;;;;5175307;27;19907;-38
2023/04/25 13:37:55;;;;;;;;;;;13.90;99.90;;;;;;5175210;27;19951;-38
2023/04/25 13:40:20;;;;;;;;;;;14.50;99.90;;;;;;5174427;27;19993;-38
2023/04/25 13:42:46;;;;;;;;;;;15.00;99.90;;;;;;5175327;27;19914;-37
2023/04/25 13:45:12;;;;;;;;;;;15.30;99.90;;;;;;5174565;27;20510;-39
2023/04/25 13:47:37;;;;;;;;;;;15.00;99.90;;;;;;5174415;27;19997;-37
2023/04/25 13:50:03;;;;;;;;;;;14.40;99.90;;;;;;5174992;27;20290;-38
2023/04/25 13:52:29;;;;;;;;;;;13.70;99.90;;;;;;5175100;27;19907;-38
2023/04/25 13:54:54;;;;;;;;;;;12.80;99.90;;;;;;5174208;27;19906;-38
2023/04/25 13:57:20;;;;;;;;;;;12.00;99.90;;;;;;5175103;27;20284;-38
2023/04/25 13:59:46;;;;;;;;;;;11.20;99.90;;;;;;5174187;27;19907;-39
2023/04/25 14:02:12;;;;;;;;;;;10.80;99.90;;;;;;5174863;27;19907;-38
2023/04/25 14:04:37;;;;;;;;;;;10.50;99.90;;;;;;5174897;27;19913;-39
2023/04/25 14:07:03;;;;;;;;;;;10.30;99.90;;;;;;5174159;27;19911;-38
2023/04/25 14:09:28;;;;;;;;;;;10.20;99.90;;;;;;5174915;27;20311;-39
2023/04/25 14:11:54;;;;;;;;;;;10.20;99.90;;;;;;5174824;27;19957;-38
2023/04/25 14:14:21;;;;;;;;;;;10.80;99.90;;;;;;5162350;27;20379;-38
2023/04/25 14:16:50;;;;;;;;;;;11.60;99.90;;;;;;5166059;27;19918;-37
2023/04/25 14:19:16;;;;;;;;;;;12.20;99.90;;;;;;5171804;27;19914;-37
2023/04/25 14:21:41;;;;;;;;;;;12.00;99.90;;;;;;5173630;27;20273;-38